sensor_id;sensor_type;location;lat;lon;timestamp;P1;durP1;ratioP1;P2;durP2;ratioP2
23868;SDS011;12115;47.128;15.422;2022-09-13T00:01:33;3.72;;;2.45;;
23868;SDS011;12115;47.128;15.422;2022-09-13T00:04:00;2.55;;;2.25;;
23868;SDS011;12115;47.128;15.422;2022-09-13T00:06:28;2.60;;;1.98;;
23868;SDS011;12115;47.128;15.422;2022-09-13T00:08:55;3.30;;;2.47;;
23868;SDS011;12115;47.128;15.422;2022-09-13T00:11:25;4.05;;;2.40;;
23868;SDS011;12115;47.128;15.422;2022-09-13T00:13:55;3.40;;;2.45;;
23868;SDS011;12115;47.128;15.422;2022-09-13T00:16:23;3.35;;;2.03;;
23868;SDS011;12115;47.128;15.422;2022-09-13T00:18:53;6.43;;;2.42;;
23868;SDS011;12115;47.128;15.422;2022-09-13T00:21:21;6.95;;;2.50;;
23868;SDS011;12115;47.128;15.422;2022-09-13T00:23:50;4.97;;;2.38;;
23868;SDS011;12115;47.128;15.422;2022-09-13T00:26:19;2.92;;;2.00;;
23868;SDS011;12115;47.128;15.422;2022-09-13T00:28:49;6.55;;;2.33;;
23868;SDS011;12115;47.128;15.422;2022-09-13T00:31:17;3.55;;;2.58;;
23868;SDS011;12115;47.128;15.422;2022-09-13T00:33:45;2.80;;;2.30;;
23868;SDS011;12115;47.128;15.422;2022-09-13T00:36:12;2.22;;;1.95;;
23868;SDS011;12115;47.128;15.422;2022-09-13T00:38:41;5.30;;;2.42;;
23868;SDS011;12115;47.128;15.422;2022-09-13T00:41:10;2.78;;;2.00;;
23868;SDS011;12115;47.128;15.422;2022-09-13T00:43:41;5.23;;;2.27;;
23868;SDS011;12115;47.128;15.422;2022-09-13T00:46:20;2.20;;;2.00;;
23868;SDS011;12115;47.128;15.422;2022-09-13T00:49:23;2.90;;;2.65;;
23868;SDS011;12115;47.128;15.422;2022-09-13T00:54:30;3.35;;;2.20;;
23868;SDS011;12115;47.128;15.422;2022-09-13T00:57:06;2.83;;;2.63;;
23868;SDS011;12115;47.128;15.422;2022-09-13T00:59:39;5.15;;;2.50;;
23868;SDS011;12115;47.128;15.422;2022-09-13T01:02:19;5.35;;;2.80;;
23868;SDS011;12115;47.128;15.422;2022-09-13T01:04:47;3.70;;;2.42;;
23868;SDS011;12115;47.128;15.422;2022-09-13T01:07:14;4.20;;;2.72;;
23868;SDS011;12115;47.128;15.422;2022-09-13T01:09:43;6.53;;;2.75;;
23868;SDS011;12115;47.128;15.422;2022-09-13T01:12:32;2.65;;;2.20;;
23868;SDS011;12115;47.128;15.422;2022-09-13T01:15:05;3.65;;;2.70;;
23868;SDS011;12115;47.128;15.422;2022-09-13T01:17:33;4.45;;;3.22;;
23868;SDS011;12115;47.128;15.422;2022-09-13T01:20:02;4.63;;;2.88;;
23868;SDS011;12115;47.128;15.422;2022-09-13T01:30:46;4.85;;;2.92;;
23868;SDS011;12115;47.128;15.422;2022-09-13T01:39:32;5.13;;;2.78;;
23868;SDS011;12115;47.128;15.422;2022-09-13T01:42:15;4.38;;;2.30;;
23868;SDS011;12115;47.128;15.422;2022-09-13T01:48:21;3.35;;;2.72;;
23868;SDS011;12115;47.128;15.422;2022-09-13T01:50:52;5.10;;;2.97;;
23868;SDS011;12115;47.128;15.422;2022-09-13T01:56:53;3.13;;;2.47;;
23868;SDS011;12115;47.128;15.422;2022-09-13T02:02:11;3.90;;;2.10;;
23868;SDS011;12115;47.128;15.422;2022-09-13T02:04:47;4.88;;;2.50;;
23868;SDS011;12115;47.128;15.422;2022-09-13T02:07:24;4.82;;;2.45;;
23868;SDS011;12115;47.128;15.422;2022-09-13T02:09:57;5.63;;;2.35;;
23868;SDS011;12115;47.128;15.422;2022-09-13T02:12:28;3.42;;;2.40;;
23868;SDS011;12115;47.128;15.422;2022-09-13T02:15:16;3.13;;;2.70;;
23868;SDS011;12115;47.128;15.422;2022-09-13T02:17:49;3.72;;;2.50;;
23868;SDS011;12115;47.128;15.422;2022-09-13T02:20:35;4.05;;;2.72;;
23868;SDS011;12115;47.128;15.422;2022-09-13T02:23:07;2.75;;;2.45;;
23868;SDS011;12115;47.128;15.422;2022-09-13T02:25:45;4.05;;;2.85;;
23868;SDS011;12115;47.128;15.422;2022-09-13T02:28:14;4.88;;;2.63;;
23868;SDS011;12115;47.128;15.422;2022-09-13T02:30:48;4.05;;;2.47;;
23868;SDS011;12115;47.128;15.422;2022-09-13T02:33:34;7.22;;;2.97;;
23868;SDS011;12115;47.128;15.422;2022-09-13T02:36:08;5.47;;;2.70;;
23868;SDS011;12115;47.128;15.422;2022-09-13T02:39:30;4.93;;;2.50;;
23868;SDS011;12115;47.128;15.422;2022-09-13T02:44:44;3.20;;;2.63;;
23868;SDS011;12115;47.128;15.422;2022-09-13T02:47:22;3.72;;;2.90;;
23868;SDS011;12115;47.128;15.422;2022-09-13T02:50:42;4.53;;;2.70;;
23868;SDS011;12115;47.128;15.422;2022-09-13T02:53:40;7.60;;;3.28;;
23868;SDS011;12115;47.128;15.422;2022-09-13T02:59:12;3.50;;;2.85;;
23868;SDS011;12115;47.128;15.422;2022-09-13T03:01:44;4.78;;;2.80;;
23868;SDS011;12115;47.128;15.422;2022-09-13T03:04:22;3.85;;;2.47;;
23868;SDS011;12115;47.128;15.422;2022-09-13T03:06:50;3.70;;;2.88;;
23868;SDS011;12115;47.128;15.422;2022-09-13T03:09:23;3.92;;;3.05;;
23868;SDS011;12115;47.128;15.422;2022-09-13T03:15:13;3.28;;;2.97;;
23868;SDS011;12115;47.128;15.422;2022-09-13T03:23:22;4.57;;;3.03;;
23868;SDS011;12115;47.128;15.422;2022-09-13T03:29:17;4.18;;;2.30;;
23868;SDS011;12115;47.128;15.422;2022-09-13T03:37:56;4.47;;;2.67;;
23868;SDS011;12115;47.128;15.422;2022-09-13T03:46:03;4.57;;;3.00;;
23868;SDS011;12115;47.128;15.422;2022-09-13T03:48:41;6.97;;;3.47;;
23868;SDS011;12115;47.128;15.422;2022-09-13T03:51:12;3.83;;;2.78;;
23868;SDS011;12115;47.128;15.422;2022-09-13T03:53:42;4.90;;;3.45;;
23868;SDS011;12115;47.128;15.422;2022-09-13T03:56:14;5.72;;;3.17;;
23868;SDS011;12115;47.128;15.422;2022-09-13T03:58:43;3.45;;;2.88;;
23868;SDS011;12115;47.128;15.422;2022-09-13T04:01:21;7.03;;;3.78;;
23868;SDS011;12115;47.128;15.422;2022-09-13T04:03:52;4.82;;;3.30;;
23868;SDS011;12115;47.128;15.422;2022-09-13T04:06:22;3.72;;;3.30;;
23868;SDS011;12115;47.128;15.422;2022-09-13T04:08:50;5.47;;;2.92;;
23868;SDS011;12115;47.128;15.422;2022-09-13T04:11:17;7.55;;;2.95;;
23868;SDS011;12115;47.128;15.422;2022-09-13T04:13:48;4.63;;;3.07;;
23868;SDS011;12115;47.128;15.422;2022-09-13T04:16:20;5.88;;;3.08;;
23868;SDS011;12115;47.128;15.422;2022-09-13T04:18:49;3.33;;;3.00;;
23868;SDS011;12115;47.128;15.422;2022-09-13T04:21:18;4.25;;;2.90;;
23868;SDS011;12115;47.128;15.422;2022-09-13T04:23:49;3.33;;;3.00;;
23868;SDS011;12115;47.128;15.422;2022-09-13T04:26:17;4.88;;;3.35;;
23868;SDS011;12115;47.128;15.422;2022-09-13T04:28:50;5.25;;;2.42;;
23868;SDS011;12115;47.128;15.422;2022-09-13T04:31:18;8.13;;;2.92;;
23868;SDS011;12115;47.128;15.422;2022-09-13T04:33:50;8.88;;;3.40;;
23868;SDS011;12115;47.128;15.422;2022-09-13T04:36:18;3.47;;;3.10;;
23868;SDS011;12115;47.128;15.422;2022-09-13T04:38:49;4.40;;;3.20;;
23868;SDS011;12115;47.128;15.422;2022-09-13T04:41:17;6.28;;;2.78;;
23868;SDS011;12115;47.128;15.422;2022-09-13T04:43:49;4.10;;;3.00;;
23868;SDS011;12115;47.128;15.422;2022-09-13T04:46:17;2.97;;;2.78;;
23868;SDS011;12115;47.128;15.422;2022-09-13T04:48:51;5.72;;;3.05;;
23868;SDS011;12115;47.128;15.422;2022-09-13T04:51:22;4.68;;;3.10;;
23868;SDS011;12115;47.128;15.422;2022-09-13T04:53:51;5.07;;;3.22;;
23868;SDS011;12115;47.128;15.422;2022-09-13T04:56:21;2.88;;;2.58;;
23868;SDS011;12115;47.128;15.422;2022-09-13T04:58:49;4.88;;;3.22;;
23868;SDS011;12115;47.128;15.422;2022-09-13T05:01:20;7.50;;;3.03;;
23868;SDS011;12115;47.128;15.422;2022-09-13T05:03:56;5.95;;;2.85;;
23868;SDS011;12115;47.128;15.422;2022-09-13T05:06:24;3.20;;;2.60;;
23868;SDS011;12115;47.128;15.422;2022-09-13T05:08:58;5.05;;;2.60;;
23868;SDS011;12115;47.128;15.422;2022-09-13T05:11:26;3.08;;;2.78;;
23868;SDS011;12115;47.128;15.422;2022-09-13T05:13:57;3.97;;;2.45;;
23868;SDS011;12115;47.128;15.422;2022-09-13T05:16:29;3.22;;;2.40;;
23868;SDS011;12115;47.128;15.422;2022-09-13T05:18:59;5.60;;;3.50;;
23868;SDS011;12115;47.128;15.422;2022-09-13T05:21:31;5.10;;;2.75;;
23868;SDS011;12115;47.128;15.422;2022-09-13T05:23:59;5.40;;;3.10;;
23868;SDS011;12115;47.128;15.422;2022-09-13T05:26:27;3.85;;;3.45;;
23868;SDS011;12115;47.128;15.422;2022-09-13T05:29:04;4.47;;;3.50;;
23868;SDS011;12115;47.128;15.422;2022-09-13T05:31:36;4.22;;;3.00;;
23868;SDS011;12115;47.128;15.422;2022-09-13T05:34:13;5.25;;;2.95;;
23868;SDS011;12115;47.128;15.422;2022-09-13T05:36:45;5.30;;;3.08;;
23868;SDS011;12115;47.128;15.422;2022-09-13T05:39:19;4.47;;;3.42;;
23868;SDS011;12115;47.128;15.422;2022-09-13T05:42:08;3.85;;;3.53;;
23868;SDS011;12115;47.128;15.422;2022-09-13T05:44:38;3.55;;;2.95;;
23868;SDS011;12115;47.128;15.422;2022-09-13T05:47:13;6.45;;;4.88;;
23868;SDS011;12115;47.128;15.422;2022-09-13T05:49:56;8.02;;;4.00;;
23868;SDS011;12115;47.128;15.422;2022-09-13T05:52:36;11.93;;;4.60;;
23868;SDS011;12115;47.128;15.422;2022-09-13T05:55:04;9.25;;;4.18;;
23868;SDS011;12115;47.128;15.422;2022-09-13T05:57:37;12.68;;;4.22;;
23868;SDS011;12115;47.128;15.422;2022-09-13T06:00:07;4.00;;;3.28;;
23868;SDS011;12115;47.128;15.422;2022-09-13T06:02:38;5.00;;;3.30;;
23868;SDS011;12115;47.128;15.422;2022-09-13T06:05:08;7.40;;;3.63;;
23868;SDS011;12115;47.128;15.422;2022-09-13T06:07:40;7.85;;;3.40;;
23868;SDS011;12115;47.128;15.422;2022-09-13T06:10:11;5.60;;;3.17;;
23868;SDS011;12115;47.128;15.422;2022-09-13T06:12:44;7.80;;;3.70;;
23868;SDS011;12115;47.128;15.422;2022-09-13T06:15:17;6.20;;;3.37;;
23868;SDS011;12115;47.128;15.422;2022-09-13T06:17:44;6.53;;;3.15;;
23868;SDS011;12115;47.128;15.422;2022-09-13T06:20:17;6.60;;;3.90;;
23868;SDS011;12115;47.128;15.422;2022-09-13T06:23:02;6.97;;;3.70;;
23868;SDS011;12115;47.128;15.422;2022-09-13T06:25:43;5.97;;;3.17;;
23868;SDS011;12115;47.128;15.422;2022-09-13T06:28:15;4.90;;;3.45;;
23868;SDS011;12115;47.128;15.422;2022-09-13T06:30:46;5.22;;;3.10;;
23868;SDS011;12115;47.128;15.422;2022-09-13T06:33:13;5.80;;;3.45;;
23868;SDS011;12115;47.128;15.422;2022-09-13T06:35:43;3.97;;;3.58;;
23868;SDS011;12115;47.128;15.422;2022-09-13T06:38:13;5.30;;;3.50;;
23868;SDS011;12115;47.128;15.422;2022-09-13T06:40:40;3.88;;;2.97;;
23868;SDS011;12115;47.128;15.422;2022-09-13T06:43:08;4.63;;;3.15;;
23868;SDS011;12115;47.128;15.422;2022-09-13T06:45:35;4.43;;;3.08;;
23868;SDS011;12115;47.128;15.422;2022-09-13T06:48:02;7.13;;;3.50;;
23868;SDS011;12115;47.128;15.422;2022-09-13T06:50:29;6.57;;;3.67;;
23868;SDS011;12115;47.128;15.422;2022-09-13T06:52:56;3.95;;;3.35;;
23868;SDS011;12115;47.128;15.422;2022-09-13T06:55:23;3.95;;;3.40;;
23868;SDS011;12115;47.128;15.422;2022-09-13T06:57:50;5.47;;;3.13;;
23868;SDS011;12115;47.128;15.422;2022-09-13T07:00:17;8.57;;;3.17;;
23868;SDS011;12115;47.128;15.422;2022-09-13T07:02:49;4.00;;;3.10;;
23868;SDS011;12115;47.128;15.422;2022-09-13T07:05:17;3.67;;;3.30;;
23868;SDS011;12115;47.128;15.422;2022-09-13T07:07:45;5.75;;;3.85;;
23868;SDS011;12115;47.128;15.422;2022-09-13T07:10:13;6.78;;;3.72;;
23868;SDS011;12115;47.128;15.422;2022-09-13T07:12:40;9.85;;;3.58;;
23868;SDS011;12115;47.128;15.422;2022-09-13T07:15:07;6.40;;;3.22;;
23868;SDS011;12115;47.128;15.422;2022-09-13T07:17:35;5.88;;;3.55;;
23868;SDS011;12115;47.128;15.422;2022-09-13T07:20:02;6.95;;;3.53;;
23868;SDS011;12115;47.128;15.422;2022-09-13T07:22:32;5.78;;;3.03;;
23868;SDS011;12115;47.128;15.422;2022-09-13T07:24:58;5.25;;;3.28;;
23868;SDS011;12115;47.128;15.422;2022-09-13T07:27:26;6.25;;;3.22;;
23868;SDS011;12115;47.128;15.422;2022-09-13T07:29:53;11.02;;;3.42;;
23868;SDS011;12115;47.128;15.422;2022-09-13T07:32:21;6.63;;;3.38;;
23868;SDS011;12115;47.128;15.422;2022-09-13T07:34:48;4.75;;;2.78;;
23868;SDS011;12115;47.128;15.422;2022-09-13T07:37:15;5.45;;;3.13;;
23868;SDS011;12115;47.128;15.422;2022-09-13T07:39:42;5.97;;;3.25;;
23868;SDS011;12115;47.128;15.422;2022-09-13T07:42:09;3.95;;;2.90;;
23868;SDS011;12115;47.128;15.422;2022-09-13T07:44:36;6.38;;;2.80;;
23868;SDS011;12115;47.128;15.422;2022-09-13T07:47:05;7.55;;;3.03;;
23868;SDS011;12115;47.128;15.422;2022-09-13T07:49:32;4.60;;;2.42;;
23868;SDS011;12115;47.128;15.422;2022-09-13T07:51:59;4.50;;;3.03;;
23868;SDS011;12115;47.128;15.422;2022-09-13T07:54:29;5.10;;;3.08;;
23868;SDS011;12115;47.128;15.422;2022-09-13T07:56:58;4.80;;;3.00;;
23868;SDS011;12115;47.128;15.422;2022-09-13T07:59:31;4.82;;;2.65;;
23868;SDS011;12115;47.128;15.422;2022-09-13T08:02:03;5.57;;;2.85;;
23868;SDS011;12115;47.128;15.422;2022-09-13T08:04:41;4.80;;;2.60;;
23868;SDS011;12115;47.128;15.422;2022-09-13T08:07:15;3.38;;;2.40;;
23868;SDS011;12115;47.128;15.422;2022-09-13T08:09:48;4.40;;;2.47;;
23868;SDS011;12115;47.128;15.422;2022-09-13T08:12:16;5.70;;;2.67;;
23868;SDS011;12115;47.128;15.422;2022-09-13T08:14:54;3.42;;;2.17;;
23868;SDS011;12115;47.128;15.422;2022-09-13T08:17:22;4.65;;;2.53;;
23868;SDS011;12115;47.128;15.422;2022-09-13T08:19:50;3.95;;;1.90;;
23868;SDS011;12115;47.128;15.422;2022-09-13T08:22:25;4.20;;;2.22;;
23868;SDS011;12115;47.128;15.422;2022-09-13T08:25:08;3.47;;;2.30;;
23868;SDS011;12115;47.128;15.422;2022-09-13T08:27:36;3.92;;;2.53;;
23868;SDS011;12115;47.128;15.422;2022-09-13T08:30:15;6.03;;;2.42;;
23868;SDS011;12115;47.128;15.422;2022-09-13T08:32:45;3.67;;;2.20;;
23868;SDS011;12115;47.128;15.422;2022-09-13T08:35:21;2.90;;;2.45;;
23868;SDS011;12115;47.128;15.422;2022-09-13T08:37:49;3.47;;;1.92;;
23868;SDS011;12115;47.128;15.422;2022-09-13T08:40:17;3.97;;;2.28;;
23868;SDS011;12115;47.128;15.422;2022-09-13T08:42:48;2.83;;;1.95;;
23868;SDS011;12115;47.128;15.422;2022-09-13T08:45:24;3.25;;;2.63;;
23868;SDS011;12115;47.128;15.422;2022-09-13T08:48:04;6.25;;;2.17;;
23868;SDS011;12115;47.128;15.422;2022-09-13T08:50:41;2.75;;;1.77;;
23868;SDS011;12115;47.128;15.422;2022-09-13T08:53:24;3.53;;;2.22;;
23868;SDS011;12115;47.128;15.422;2022-09-13T08:56:05;4.60;;;2.10;;
23868;SDS011;12115;47.128;15.422;2022-09-13T08:59:01;4.13;;;2.15;;
23868;SDS011;12115;47.128;15.422;2022-09-13T09:06:50;5.22;;;2.30;;
23868;SDS011;12115;47.128;15.422;2022-09-13T09:09:27;3.70;;;2.15;;
23868;SDS011;12115;47.128;15.422;2022-09-13T09:14:38;2.03;;;1.77;;
23868;SDS011;12115;47.128;15.422;2022-09-13T09:17:21;3.67;;;1.83;;
23868;SDS011;12115;47.128;15.422;2022-09-13T09:20:05;4.68;;;1.95;;
23868;SDS011;12115;47.128;15.422;2022-09-13T09:22:37;3.50;;;1.90;;
23868;SDS011;12115;47.128;15.422;2022-09-13T09:25:04;3.97;;;2.30;;
23868;SDS011;12115;47.128;15.422;2022-09-13T09:27:32;3.45;;;1.98;;
23868;SDS011;12115;47.128;15.422;2022-09-13T09:29:59;2.88;;;1.83;;
23868;SDS011;12115;47.128;15.422;2022-09-13T09:35:15;4.70;;;1.98;;
23868;SDS011;12115;47.128;15.422;2022-09-13T09:40:55;4.60;;;1.90;;
23868;SDS011;12115;47.128;15.422;2022-09-13T09:43:30;3.63;;;2.00;;
23868;SDS011;12115;47.128;15.422;2022-09-13T09:46:08;4.15;;;2.08;;
23868;SDS011;12115;47.128;15.422;2022-09-13T09:48:45;3.17;;;2.03;;
23868;SDS011;12115;47.128;15.422;2022-09-13T09:51:18;4.30;;;2.00;;
23868;SDS011;12115;47.128;15.422;2022-09-13T09:53:56;6.75;;;1.92;;
23868;SDS011;12115;47.128;15.422;2022-09-13T09:56:29;3.58;;;2.20;;
23868;SDS011;12115;47.128;15.422;2022-09-13T09:59:00;4.78;;;1.98;;
23868;SDS011;12115;47.128;15.422;2022-09-13T10:01:36;2.10;;;1.90;;
23868;SDS011;12115;47.128;15.422;2022-09-13T10:06:42;3.53;;;2.13;;
23868;SDS011;12115;47.128;15.422;2022-09-13T10:09:15;3.05;;;1.83;;
23868;SDS011;12115;47.128;15.422;2022-09-13T10:11:56;3.28;;;2.10;;
23868;SDS011;12115;47.128;15.422;2022-09-13T10:14:41;2.75;;;1.88;;
23868;SDS011;12115;47.128;15.422;2022-09-13T10:17:28;5.63;;;2.10;;
23868;SDS011;12115;47.128;15.422;2022-09-13T10:22:43;2.40;;;1.67;;
23868;SDS011;12115;47.128;15.422;2022-09-13T10:25:23;4.43;;;1.50;;
23868;SDS011;12115;47.128;15.422;2022-09-13T10:28:00;2.35;;;1.65;;
23868;SDS011;12115;47.128;15.422;2022-09-13T10:30:39;2.33;;;1.90;;
23868;SDS011;12115;47.128;15.422;2022-09-13T10:35:59;3.25;;;1.90;;
23868;SDS011;12115;47.128;15.422;2022-09-13T10:38:33;5.65;;;1.80;;
23868;SDS011;12115;47.128;15.422;2022-09-13T10:41:19;5.35;;;1.75;;
23868;SDS011;12115;47.128;15.422;2022-09-13T10:43:55;2.17;;;1.83;;
23868;SDS011;12115;47.128;15.422;2022-09-13T10:46:36;3.67;;;1.92;;
23868;SDS011;12115;47.128;15.422;2022-09-13T10:49:33;5.47;;;2.17;;
23868;SDS011;12115;47.128;15.422;2022-09-13T10:54:57;3.03;;;1.87;;
23868;SDS011;12115;47.128;15.422;2022-09-13T11:00:30;2.35;;;1.73;;
23868;SDS011;12115;47.128;15.422;2022-09-13T11:14:04;3.25;;;2.35;;
23868;SDS011;12115;47.128;15.422;2022-09-13T11:19:35;3.80;;;2.17;;
23868;SDS011;12115;47.128;15.422;2022-09-13T11:22:26;8.02;;;2.15;;
23868;SDS011;12115;47.128;15.422;2022-09-13T11:30:22;2.40;;;1.85;;
23868;SDS011;12115;47.128;15.422;2022-09-13T11:33:05;4.05;;;1.98;;
23868;SDS011;12115;47.128;15.422;2022-09-13T11:46:50;4.35;;;2.28;;
23868;SDS011;12115;47.128;15.422;2022-09-13T11:55:32;3.15;;;1.95;;
23868;SDS011;12115;47.128;15.422;2022-09-13T11:58:09;5.32;;;2.00;;
23868;SDS011;12115;47.128;15.422;2022-09-13T12:00:51;3.20;;;1.90;;
23868;SDS011;12115;47.128;15.422;2022-09-13T12:03:48;5.43;;;2.17;;
23868;SDS011;12115;47.128;15.422;2022-09-13T12:06:27;3.25;;;2.30;;
23868;SDS011;12115;47.128;15.422;2022-09-13T12:09:01;3.50;;;2.40;;
23868;SDS011;12115;47.128;15.422;2022-09-13T12:11:47;2.95;;;2.10;;
23868;SDS011;12115;47.128;15.422;2022-09-13T12:14:35;4.28;;;2.10;;
23868;SDS011;12115;47.128;15.422;2022-09-13T12:17:14;3.45;;;1.95;;
23868;SDS011;12115;47.128;15.422;2022-09-13T12:19:49;4.40;;;2.05;;
23868;SDS011;12115;47.128;15.422;2022-09-13T12:22:23;2.30;;;2.10;;
23868;SDS011;12115;47.128;15.422;2022-09-13T12:24:57;2.05;;;1.85;;
23868;SDS011;12115;47.128;15.422;2022-09-13T12:27:35;1.80;;;1.65;;
23868;SDS011;12115;47.128;15.422;2022-09-13T12:30:16;4.57;;;1.77;;
23868;SDS011;12115;47.128;15.422;2022-09-13T12:32:45;5.03;;;2.20;;
23868;SDS011;12115;47.128;15.422;2022-09-13T12:35:27;6.30;;;2.10;;
23868;SDS011;12115;47.128;15.422;2022-09-13T12:51:54;4.90;;;2.08;;
23868;SDS011;12115;47.128;15.422;2022-09-13T12:58:18;3.50;;;2.20;;
23868;SDS011;12115;47.128;15.422;2022-09-13T13:01:01;2.92;;;1.85;;
23868;SDS011;12115;47.128;15.422;2022-09-13T13:06:38;4.35;;;2.20;;
23868;SDS011;12115;47.128;15.422;2022-09-13T13:12:01;4.22;;;1.90;;
23868;SDS011;12115;47.128;15.422;2022-09-13T13:14:42;4.32;;;2.13;;
23868;SDS011;12115;47.128;15.422;2022-09-13T13:33:57;5.68;;;1.88;;
23868;SDS011;12115;47.128;15.422;2022-09-13T13:36:41;7.38;;;1.80;;
23868;SDS011;12115;47.128;15.422;2022-09-13T14:05:07;2.90;;;1.90;;
23868;SDS011;12115;47.128;15.422;2022-09-13T14:21:08;6.78;;;1.85;;
23868;SDS011;12115;47.128;15.422;2022-09-13T14:23:46;4.25;;;1.42;;
23868;SDS011;12115;47.128;15.422;2022-09-13T14:26:14;5.07;;;2.20;;
23868;SDS011;12115;47.128;15.422;2022-09-13T14:28:41;4.53;;;1.80;;
23868;SDS011;12115;47.128;15.422;2022-09-13T14:31:14;4.60;;;1.60;;
23868;SDS011;12115;47.128;15.422;2022-09-13T14:33:45;4.30;;;1.70;;
23868;SDS011;12115;47.128;15.422;2022-09-13T14:36:17;4.78;;;1.60;;
23868;SDS011;12115;47.128;15.422;2022-09-13T14:38:50;2.13;;;1.27;;
23868;SDS011;12115;47.128;15.422;2022-09-13T14:41:21;5.45;;;1.40;;
23868;SDS011;12115;47.128;15.422;2022-09-13T14:46:52;5.83;;;1.73;;
23868;SDS011;12115;47.128;15.422;2022-09-13T14:49:41;6.38;;;1.92;;
23868;SDS011;12115;47.128;15.422;2022-09-13T14:52:34;4.28;;;1.85;;
23868;SDS011;12115;47.128;15.422;2022-09-13T14:55:06;6.28;;;1.75;;
23868;SDS011;12115;47.128;15.422;2022-09-13T14:57:42;2.25;;;1.60;;
23868;SDS011;12115;47.128;15.422;2022-09-13T15:00:16;2.42;;;1.73;;
23868;SDS011;12115;47.128;15.422;2022-09-13T15:02:54;3.38;;;1.42;;
23868;SDS011;12115;47.128;15.422;2022-09-13T15:05:28;3.72;;;1.67;;
23868;SDS011;12115;47.128;15.422;2022-09-13T15:07:58;5.90;;;1.77;;
23868;SDS011;12115;47.128;15.422;2022-09-13T15:10:31;6.55;;;1.60;;
23868;SDS011;12115;47.128;15.422;2022-09-13T15:15:36;3.67;;;1.63;;
23868;SDS011;12115;47.128;15.422;2022-09-13T15:20:58;3.22;;;1.23;;
23868;SDS011;12115;47.128;15.422;2022-09-13T15:23:31;2.28;;;1.42;;
23868;SDS011;12115;47.128;15.422;2022-09-13T15:26:06;7.40;;;1.80;;
23868;SDS011;12115;47.128;15.422;2022-09-13T15:36:46;3.63;;;1.70;;
23868;SDS011;12115;47.128;15.422;2022-09-13T15:39:19;3.00;;;1.50;;
23868;SDS011;12115;47.128;15.422;2022-09-13T15:44:26;4.03;;;2.00;;
23868;SDS011;12115;47.128;15.422;2022-09-13T15:46:56;2.95;;;1.95;;
23868;SDS011;12115;47.128;15.422;2022-09-13T15:49:28;4.60;;;2.20;;
23868;SDS011;12115;47.128;15.422;2022-09-13T15:51:57;2.65;;;1.83;;
23868;SDS011;12115;47.128;15.422;2022-09-13T15:54:31;7.47;;;2.10;;
23868;SDS011;12115;47.128;15.422;2022-09-13T15:57:18;1.90;;;1.58;;
23868;SDS011;12115;47.128;15.422;2022-09-13T15:59:48;2.90;;;1.75;;
23868;SDS011;12115;47.128;15.422;2022-09-13T16:02:23;2.95;;;1.60;;
23868;SDS011;12115;47.128;15.422;2022-09-13T16:04:52;7.43;;;1.88;;
23868;SDS011;12115;47.128;15.422;2022-09-13T16:07:20;5.53;;;1.98;;
23868;SDS011;12115;47.128;15.422;2022-09-13T16:09:48;5.05;;;1.70;;
23868;SDS011;12115;47.128;15.422;2022-09-13T16:12:15;2.22;;;1.30;;
23868;SDS011;12115;47.128;15.422;2022-09-13T16:14:44;2.55;;;1.65;;
23868;SDS011;12115;47.128;15.422;2022-09-13T16:17:15;3.67;;;1.60;;
23868;SDS011;12115;47.128;15.422;2022-09-13T16:19:47;2.45;;;1.58;;
23868;SDS011;12115;47.128;15.422;2022-09-13T16:22:14;3.47;;;1.40;;
23868;SDS011;12115;47.128;15.422;2022-09-13T16:24:42;3.92;;;1.58;;
23868;SDS011;12115;47.128;15.422;2022-09-13T16:27:10;6.68;;;1.70;;
23868;SDS011;12115;47.128;15.422;2022-09-13T16:29:39;3.40;;;1.55;;
23868;SDS011;12115;47.128;15.422;2022-09-13T16:32:07;3.05;;;1.65;;
23868;SDS011;12115;47.128;15.422;2022-09-13T16:34:34;6.43;;;1.92;;
23868;SDS011;12115;47.128;15.422;2022-09-13T16:37:01;4.63;;;1.85;;
23868;SDS011;12115;47.128;15.422;2022-09-13T16:39:29;4.35;;;1.90;;
23868;SDS011;12115;47.128;15.422;2022-09-13T16:41:56;2.60;;;1.45;;
23868;SDS011;12115;47.128;15.422;2022-09-13T16:44:23;2.70;;;1.75;;
23868;SDS011;12115;47.128;15.422;2022-09-13T16:46:50;4.30;;;1.67;;
23868;SDS011;12115;47.128;15.422;2022-09-13T16:49:17;3.67;;;1.52;;
23868;SDS011;12115;47.128;15.422;2022-09-13T16:51:44;12.63;;;1.77;;
23868;SDS011;12115;47.128;15.422;2022-09-13T16:54:11;7.22;;;2.08;;
23868;SDS011;12115;47.128;15.422;2022-09-13T16:56:38;4.45;;;1.67;;
23868;SDS011;12115;47.128;15.422;2022-09-13T16:59:05;3.85;;;1.75;;
23868;SDS011;12115;47.128;15.422;2022-09-13T17:01:32;9.20;;;1.90;;
23868;SDS011;12115;47.128;15.422;2022-09-13T17:04:00;4.63;;;1.77;;
23868;SDS011;12115;47.128;15.422;2022-09-13T17:06:27;3.22;;;1.67;;
23868;SDS011;12115;47.128;15.422;2022-09-13T17:08:58;2.70;;;1.70;;
23868;SDS011;12115;47.128;15.422;2022-09-13T17:11:28;4.10;;;1.90;;
23868;SDS011;12115;47.128;15.422;2022-09-13T17:13:57;3.92;;;2.00;;
23868;SDS011;12115;47.128;15.422;2022-09-13T17:16:26;6.18;;;1.90;;
23868;SDS011;12115;47.128;15.422;2022-09-13T17:18:57;3.33;;;2.00;;
23868;SDS011;12115;47.128;15.422;2022-09-13T17:21:26;3.50;;;1.90;;
23868;SDS011;12115;47.128;15.422;2022-09-13T17:23:53;3.42;;;2.03;;
23868;SDS011;12115;47.128;15.422;2022-09-13T17:26:21;3.45;;;1.58;;
23868;SDS011;12115;47.128;15.422;2022-09-13T17:28:48;6.35;;;1.80;;
23868;SDS011;12115;47.128;15.422;2022-09-13T17:31:16;3.97;;;2.17;;
23868;SDS011;12115;47.128;15.422;2022-09-13T17:33:44;5.38;;;2.17;;
23868;SDS011;12115;47.128;15.422;2022-09-13T17:36:12;2.70;;;1.77;;
23868;SDS011;12115;47.128;15.422;2022-09-13T17:38:40;6.28;;;1.80;;
23868;SDS011;12115;47.128;15.422;2022-09-13T17:41:15;5.28;;;1.80;;
23868;SDS011;12115;47.128;15.422;2022-09-13T17:43:43;6.65;;;1.90;;
23868;SDS011;12115;47.128;15.422;2022-09-13T17:46:13;3.45;;;1.92;;
23868;SDS011;12115;47.128;15.422;2022-09-13T17:48:42;4.70;;;2.30;;
23868;SDS011;12115;47.128;15.422;2022-09-13T17:51:10;6.53;;;1.90;;
23868;SDS011;12115;47.128;15.422;2022-09-13T17:53:40;5.53;;;2.25;;
23868;SDS011;12115;47.128;15.422;2022-09-13T17:56:16;2.97;;;2.17;;
23868;SDS011;12115;47.128;15.422;2022-09-13T17:58:44;8.95;;;2.25;;
23868;SDS011;12115;47.128;15.422;2022-09-13T18:01:11;4.68;;;2.70;;
23868;SDS011;12115;47.128;15.422;2022-09-13T18:03:39;8.55;;;2.47;;
23868;SDS011;12115;47.128;15.422;2022-09-13T18:06:07;5.38;;;2.28;;
23868;SDS011;12115;47.128;15.422;2022-09-13T18:08:36;5.00;;;2.30;;
23868;SDS011;12115;47.128;15.422;2022-09-13T18:11:06;4.72;;;2.60;;
23868;SDS011;12115;47.128;15.422;2022-09-13T18:13:39;3.70;;;2.28;;
23868;SDS011;12115;47.128;15.422;2022-09-13T18:16:12;2.50;;;2.30;;
23868;SDS011;12115;47.128;15.422;2022-09-13T18:18:46;4.53;;;1.90;;
23868;SDS011;12115;47.128;15.422;2022-09-13T18:21:15;7.00;;;2.50;;
23868;SDS011;12115;47.128;15.422;2022-09-13T18:23:46;5.03;;;2.50;;
23868;SDS011;12115;47.128;15.422;2022-09-13T18:26:17;6.50;;;2.30;;
23868;SDS011;12115;47.128;15.422;2022-09-13T18:28:46;4.47;;;1.90;;
23868;SDS011;12115;47.128;15.422;2022-09-13T18:31:18;4.40;;;2.55;;
23868;SDS011;12115;47.128;15.422;2022-09-13T18:33:46;6.03;;;2.47;;
23868;SDS011;12115;47.128;15.422;2022-09-13T18:36:14;3.05;;;2.47;;
23868;SDS011;12115;47.128;15.422;2022-09-13T18:38:44;3.50;;;2.20;;
23868;SDS011;12115;47.128;15.422;2022-09-13T18:41:15;2.90;;;2.30;;
23868;SDS011;12115;47.128;15.422;2022-09-13T18:43:43;6.32;;;2.20;;
23868;SDS011;12115;47.128;15.422;2022-09-13T18:46:12;2.97;;;1.92;;